sensor_id;sensor_type;location;lat;lon;timestamp;P1;durP1;ratioP1;P2;durP2;ratioP2
43529;SDS011;55654;50.966;6.878;2023-04-03T00:00:10;8.67;;;3.60;;
43529;SDS011;55654;50.966;6.878;2023-04-03T00:02:36;8.00;;;3.60;;
43529;SDS011;55654;50.966;6.878;2023-04-03T00:05:02;6.73;;;3.50;;
43529;SDS011;55654;50.966;6.878;2023-04-03T00:07:29;6.10;;;4.17;;
43529;SDS011;55654;50.966;6.878;2023-04-03T00:09:55;7.73;;;5.23;;
43529;SDS011;55654;50.966;6.878;2023-04-03T00:12:21;6.70;;;4.13;;
43529;SDS011;55654;50.966;6.878;2023-04-03T00:14:47;8.93;;;5.30;;
43529;SDS011;55654;50.966;6.878;2023-04-03T00:17:13;7.77;;;4.90;;
43529;SDS011;55654;50.966;6.878;2023-04-03T00:19:39;10.77;;;5.07;;
43529;SDS011;55654;50.966;6.878;2023-04-03T00:22:05;7.33;;;5.20;;
43529;SDS011;55654;50.966;6.878;2023-04-03T00:24:31;11.43;;;6.03;;
43529;SDS011;55654;50.966;6.878;2023-04-03T00:26:57;9.97;;;5.77;;
43529;SDS011;55654;50.966;6.878;2023-04-03T00:29:23;12.77;;;6.77;;
43529;SDS011;55654;50.966;6.878;2023-04-03T00:31:49;11.20;;;7.93;;
43529;SDS011;55654;50.966;6.878;2023-04-03T00:34:15;8.40;;;5.53;;
43529;SDS011;55654;50.966;6.878;2023-04-03T00:36:43;8.57;;;6.43;;
43529;SDS011;55654;50.966;6.878;2023-04-03T00:39:12;15.43;;;7.27;;
43529;SDS011;55654;50.966;6.878;2023-04-03T00:41:38;10.63;;;6.90;;
43529;SDS011;55654;50.966;6.878;2023-04-03T00:46:53;10.87;;;7.33;;
43529;SDS011;55654;50.966;6.878;2023-04-03T00:49:19;10.50;;;8.10;;
43529;SDS011;55654;50.966;6.878;2023-04-03T00:51:45;13.37;;;8.27;;
43529;SDS011;55654;50.966;6.878;2023-04-03T00:54:14;13.50;;;7.80;;
43529;SDS011;55654;50.966;6.878;2023-04-03T00:56:43;14.90;;;9.23;;
43529;SDS011;55654;50.966;6.878;2023-04-03T01:01:35;14.97;;;8.70;;
43529;SDS011;55654;50.966;6.878;2023-04-03T01:04:02;17.13;;;10.13;;
43529;SDS011;55654;50.966;6.878;2023-04-03T01:06:33;18.83;;;10.97;;
43529;SDS011;55654;50.966;6.878;2023-04-03T01:09:02;12.83;;;9.57;;
43529;SDS011;55654;50.966;6.878;2023-04-03T01:11:31;14.63;;;9.47;;
43529;SDS011;55654;50.966;6.878;2023-04-03T01:13:57;20.83;;;10.70;;
43529;SDS011;55654;50.966;6.878;2023-04-03T01:16:23;19.50;;;10.23;;
43529;SDS011;55654;50.966;6.878;2023-04-03T01:18:49;18.13;;;11.70;;
43529;SDS011;55654;50.966;6.878;2023-04-03T01:26:22;14.70;;;10.30;;
43529;SDS011;55654;50.966;6.878;2023-04-03T01:28:48;17.83;;;11.03;;
43529;SDS011;55654;50.966;6.878;2023-04-03T01:33:40;17.77;;;11.40;;
43529;SDS011;55654;50.966;6.878;2023-04-03T01:36:07;15.03;;;11.60;;
43529;SDS011;55654;50.966;6.878;2023-04-03T01:38:33;15.70;;;10.93;;
43529;SDS011;55654;50.966;6.878;2023-04-03T01:41:01;16.57;;;11.17;;
43529;SDS011;55654;50.966;6.878;2023-04-03T01:43:27;18.30;;;11.10;;
43529;SDS011;55654;50.966;6.878;2023-04-03T01:45:53;18.93;;;11.70;;
43529;SDS011;55654;50.966;6.878;2023-04-03T01:48:19;15.03;;;11.53;;
43529;SDS011;55654;50.966;6.878;2023-04-03T01:50:48;19.30;;;11.53;;
43529;SDS011;55654;50.966;6.878;2023-04-03T01:53:15;15.90;;;11.70;;
43529;SDS011;55654;50.966;6.878;2023-04-03T01:55:41;16.57;;;11.77;;
43529;SDS011;55654;50.966;6.878;2023-04-03T01:58:07;20.13;;;12.27;;
43529;SDS011;55654;50.966;6.878;2023-04-03T02:00:33;18.10;;;11.87;;
43529;SDS011;55654;50.966;6.878;2023-04-03T02:02:59;21.10;;;14.27;;
43529;SDS011;55654;50.966;6.878;2023-04-03T02:05:25;20.50;;;13.73;;
43529;SDS011;55654;50.966;6.878;2023-04-03T02:07:51;18.83;;;13.17;;
43529;SDS011;55654;50.966;6.878;2023-04-03T02:10:17;21.20;;;13.47;;
43529;SDS011;55654;50.966;6.878;2023-04-03T02:12:44;16.73;;;12.53;;
43529;SDS011;55654;50.966;6.878;2023-04-03T02:15:12;21.87;;;13.33;;
43529;SDS011;55654;50.966;6.878;2023-04-03T02:17:38;24.07;;;14.43;;
43529;SDS011;55654;50.966;6.878;2023-04-03T02:20:04;22.00;;;13.50;;
43529;SDS011;55654;50.966;6.878;2023-04-03T02:22:30;23.47;;;14.43;;
43529;SDS011;55654;50.966;6.878;2023-04-03T02:24:56;20.33;;;13.87;;
43529;SDS011;55654;50.966;6.878;2023-04-03T02:27:23;25.60;;;14.97;;
43529;SDS011;55654;50.966;6.878;2023-04-03T02:29:49;21.40;;;14.17;;
43529;SDS011;55654;50.966;6.878;2023-04-03T02:32:15;20.47;;;14.47;;
43529;SDS011;55654;50.966;6.878;2023-04-03T02:34:41;27.03;;;15.33;;
43529;SDS011;55654;50.966;6.878;2023-04-03T02:37:07;24.83;;;15.33;;
43529;SDS011;55654;50.966;6.878;2023-04-03T02:39:33;24.33;;;17.27;;
43529;SDS011;55654;50.966;6.878;2023-04-03T02:41:59;24.27;;;14.73;;
43529;SDS011;55654;50.966;6.878;2023-04-03T02:44:25;28.77;;;15.93;;
43529;SDS011;55654;50.966;6.878;2023-04-03T02:46:53;21.97;;;14.40;;
43529;SDS011;55654;50.966;6.878;2023-04-03T02:49:19;24.27;;;13.80;;
43529;SDS011;55654;50.966;6.878;2023-04-03T02:51:45;25.03;;;14.23;;
43529;SDS011;55654;50.966;6.878;2023-04-03T02:54:12;19.63;;;14.30;;
43529;SDS011;55654;50.966;6.878;2023-04-03T02:56:38;23.13;;;13.73;;
43529;SDS011;55654;50.966;6.878;2023-04-03T02:59:04;22.00;;;12.67;;
43529;SDS011;55654;50.966;6.878;2023-04-03T03:01:31;21.77;;;13.70;;
43529;SDS011;55654;50.966;6.878;2023-04-03T03:03:58;21.97;;;13.30;;
43529;SDS011;55654;50.966;6.878;2023-04-03T03:06:24;25.37;;;12.90;;
43529;SDS011;55654;50.966;6.878;2023-04-03T03:08:50;22.50;;;13.40;;
43529;SDS011;55654;50.966;6.878;2023-04-03T03:11:16;19.97;;;13.43;;
43529;SDS011;55654;50.966;6.878;2023-04-03T03:13:44;21.17;;;13.23;;
43529;SDS011;55654;50.966;6.878;2023-04-03T03:16:10;23.70;;;13.40;;
43529;SDS011;55654;50.966;6.878;2023-04-03T03:18:35;25.47;;;13.50;;
43529;SDS011;55654;50.966;6.878;2023-04-03T03:21:02;25.73;;;12.80;;
43529;SDS011;55654;50.966;6.878;2023-04-03T03:23:29;20.37;;;12.83;;
43529;SDS011;55654;50.966;6.878;2023-04-03T03:26:01;20.20;;;12.20;;
43529;SDS011;55654;50.966;6.878;2023-04-03T03:28:29;19.40;;;12.00;;
43529;SDS011;55654;50.966;6.878;2023-04-03T03:30:58;20.60;;;12.97;;
43529;SDS011;55654;50.966;6.878;2023-04-03T03:33:24;21.77;;;13.87;;
43529;SDS011;55654;50.966;6.878;2023-04-03T03:35:51;20.73;;;13.57;;
43529;SDS011;55654;50.966;6.878;2023-04-03T03:38:19;20.90;;;13.53;;
43529;SDS011;55654;50.966;6.878;2023-04-03T03:40:47;20.23;;;12.97;;
43529;SDS011;55654;50.966;6.878;2023-04-03T03:43:16;22.77;;;13.10;;
43529;SDS011;55654;50.966;6.878;2023-04-03T03:45:42;18.90;;;12.83;;
43529;SDS011;55654;50.966;6.878;2023-04-03T03:48:11;18.33;;;12.73;;
43529;SDS011;55654;50.966;6.878;2023-04-03T03:50:37;21.80;;;13.47;;
43529;SDS011;55654;50.966;6.878;2023-04-03T03:53:02;17.73;;;13.13;;
43529;SDS011;55654;50.966;6.878;2023-04-03T03:55:30;17.80;;;12.10;;
43529;SDS011;55654;50.966;6.878;2023-04-03T03:57:58;23.80;;;13.87;;
43529;SDS011;55654;50.966;6.878;2023-04-03T04:00:26;19.20;;;11.47;;
43529;SDS011;55654;50.966;6.878;2023-04-03T04:02:51;20.07;;;12.00;;
43529;SDS011;55654;50.966;6.878;2023-04-03T04:05:17;16.97;;;10.97;;
43529;SDS011;55654;50.966;6.878;2023-04-03T04:07:42;17.33;;;9.87;;
43529;SDS011;55654;50.966;6.878;2023-04-03T04:10:08;14.90;;;9.43;;
43529;SDS011;55654;50.966;6.878;2023-04-03T04:12:34;16.37;;;9.47;;
43529;SDS011;55654;50.966;6.878;2023-04-03T04:15:02;14.17;;;7.63;;
43529;SDS011;55654;50.966;6.878;2023-04-03T04:17:28;15.53;;;8.20;;
43529;SDS011;55654;50.966;6.878;2023-04-03T04:19:54;17.50;;;8.10;;
43529;SDS011;55654;50.966;6.878;2023-04-03T04:22:20;15.23;;;8.23;;
43529;SDS011;55654;50.966;6.878;2023-04-03T04:24:45;17.97;;;8.10;;
43529;SDS011;55654;50.966;6.878;2023-04-03T04:27:11;13.17;;;8.37;;
43529;SDS011;55654;50.966;6.878;2023-04-03T04:29:36;13.57;;;8.63;;
43529;SDS011;55654;50.966;6.878;2023-04-03T04:32:02;16.30;;;6.93;;
43529;SDS011;55654;50.966;6.878;2023-04-03T04:34:28;12.20;;;6.80;;
43529;SDS011;55654;50.966;6.878;2023-04-03T04:36:54;12.37;;;6.60;;
43529;SDS011;55654;50.966;6.878;2023-04-03T04:39:20;10.37;;;6.10;;
43529;SDS011;55654;50.966;6.878;2023-04-03T04:41:48;10.90;;;5.63;;
43529;SDS011;55654;50.966;6.878;2023-04-03T04:44:14;18.93;;;5.70;;
43529;SDS011;55654;50.966;6.878;2023-04-03T04:46:40;6.70;;;4.93;;
43529;SDS011;55654;50.966;6.878;2023-04-03T04:49:08;9.90;;;5.23;;
43529;SDS011;55654;50.966;6.878;2023-04-03T04:51:33;10.53;;;5.93;;
43529;SDS011;55654;50.966;6.878;2023-04-03T04:53:59;8.97;;;5.43;;
43529;SDS011;55654;50.966;6.878;2023-04-03T04:56:25;13.00;;;6.73;;
43529;SDS011;55654;50.966;6.878;2023-04-03T04:58:53;6.87;;;5.00;;
43529;SDS011;55654;50.966;6.878;2023-04-03T05:01:18;11.07;;;5.17;;
43529;SDS011;55654;50.966;6.878;2023-04-03T05:03:44;8.57;;;4.83;;
43529;SDS011;55654;50.966;6.878;2023-04-03T05:06:09;8.97;;;4.60;;
43529;SDS011;55654;50.966;6.878;2023-04-03T05:08:35;9.07;;;4.67;;
43529;SDS011;55654;50.966;6.878;2023-04-03T05:11:01;8.90;;;4.90;;
43529;SDS011;55654;50.966;6.878;2023-04-03T05:13:26;9.93;;;4.90;;
43529;SDS011;55654;50.966;6.878;2023-04-03T05:15:52;13.70;;;5.13;;
43529;SDS011;55654;50.966;6.878;2023-04-03T05:18:17;11.47;;;4.80;;
43529;SDS011;55654;50.966;6.878;2023-04-03T05:20:43;8.67;;;4.80;;
43529;SDS011;55654;50.966;6.878;2023-04-03T05:23:09;12.70;;;4.83;;
43529;SDS011;55654;50.966;6.878;2023-04-03T05:25:38;10.63;;;4.67;;
43529;SDS011;55654;50.966;6.878;2023-04-03T05:28:06;7.30;;;4.80;;
43529;SDS011;55654;50.966;6.878;2023-04-03T05:30:32;12.53;;;4.47;;
43529;SDS011;55654;50.966;6.878;2023-04-03T05:33:00;9.67;;;3.90;;
43529;SDS011;55654;50.966;6.878;2023-04-03T05:35:25;12.70;;;4.00;;
43529;SDS011;55654;50.966;6.878;2023-04-03T05:37:51;11.30;;;3.97;;
43529;SDS011;55654;50.966;6.878;2023-04-03T05:40:19;9.70;;;4.50;;
43529;SDS011;55654;50.966;6.878;2023-04-03T05:42:45;9.40;;;3.70;;
43529;SDS011;55654;50.966;6.878;2023-04-03T05:45:11;10.43;;;3.57;;
43529;SDS011;55654;50.966;6.878;2023-04-03T05:47:36;5.23;;;3.13;;
43529;SDS011;55654;50.966;6.878;2023-04-03T05:50:02;9.97;;;3.30;;
43529;SDS011;55654;50.966;6.878;2023-04-03T05:52:35;7.07;;;2.93;;
43529;SDS011;55654;50.966;6.878;2023-04-03T05:55:03;7.22;;;3.20;;
43529;SDS011;55654;50.966;6.878;2023-04-03T05:57:28;11.87;;;4.07;;
43529;SDS011;55654;50.966;6.878;2023-04-03T05:59:56;9.87;;;3.77;;
43529;SDS011;55654;50.966;6.878;2023-04-03T06:02:22;6.43;;;3.17;;
43529;SDS011;55654;50.966;6.878;2023-04-03T06:04:50;8.00;;;3.47;;
43529;SDS011;55654;50.966;6.878;2023-04-03T06:07:19;6.03;;;2.80;;
43529;SDS011;55654;50.966;6.878;2023-04-03T06:09:47;5.57;;;2.73;;
43529;SDS011;55654;50.966;6.878;2023-04-03T06:12:14;7.73;;;3.17;;
43529;SDS011;55654;50.966;6.878;2023-04-03T06:14:40;8.60;;;2.93;;
43529;SDS011;55654;50.966;6.878;2023-04-03T06:17:06;6.80;;;3.07;;
43529;SDS011;55654;50.966;6.878;2023-04-03T06:19:33;11.10;;;2.80;;
43529;SDS011;55654;50.966;6.878;2023-04-03T06:21:58;8.43;;;2.60;;
43529;SDS011;55654;50.966;6.878;2023-04-03T06:24:25;15.87;;;7.43;;
43529;SDS011;55654;50.966;6.878;2023-04-03T06:26:51;34.33;;;20.90;;
43529;SDS011;55654;50.966;6.878;2023-04-03T06:29:17;21.40;;;13.07;;
43529;SDS011;55654;50.966;6.878;2023-04-03T06:31:44;16.73;;;10.57;;
43529;SDS011;55654;50.966;6.878;2023-04-03T06:34:10;32.67;;;22.97;;
43529;SDS011;55654;50.966;6.878;2023-04-03T06:36:36;34.87;;;23.27;;
43529;SDS011;55654;50.966;6.878;2023-04-03T06:39:02;22.63;;;16.83;;
43529;SDS011;55654;50.966;6.878;2023-04-03T06:41:28;23.37;;;18.10;;
43529;SDS011;55654;50.966;6.878;2023-04-03T06:43:53;6.23;;;4.93;;
43529;SDS011;55654;50.966;6.878;2023-04-03T06:46:21;13.47;;;3.10;;
43529;SDS011;55654;50.966;6.878;2023-04-03T06:48:48;6.83;;;2.20;;
43529;SDS011;55654;50.966;6.878;2023-04-03T06:51:26;11.03;;;2.73;;
43529;SDS011;55654;50.966;6.878;2023-04-03T06:53:56;7.27;;;2.27;;
43529;SDS011;55654;50.966;6.878;2023-04-03T06:56:23;8.87;;;3.07;;
43529;SDS011;55654;50.966;6.878;2023-04-03T06:58:50;10.20;;;4.60;;
43529;SDS011;55654;50.966;6.878;2023-04-03T07:01:16;3.70;;;1.87;;
43529;SDS011;55654;50.966;6.878;2023-04-03T07:03:44;6.27;;;2.80;;
43529;SDS011;55654;50.966;6.878;2023-04-03T07:06:13;7.63;;;1.80;;
43529;SDS011;55654;50.966;6.878;2023-04-03T07:08:40;6.03;;;3.20;;
43529;SDS011;55654;50.966;6.878;2023-04-03T07:11:06;22.33;;;17.27;;
43529;SDS011;55654;50.966;6.878;2023-04-03T07:13:32;10.63;;;5.87;;
43529;SDS011;55654;50.966;6.878;2023-04-03T07:15:57;7.83;;;2.53;;
43529;SDS011;55654;50.966;6.878;2023-04-03T07:18:23;3.43;;;2.40;;
43529;SDS011;55654;50.966;6.878;2023-04-03T07:20:50;6.13;;;1.40;;
43529;SDS011;55654;50.966;6.878;2023-04-03T07:23:18;4.73;;;1.70;;
43529;SDS011;55654;50.966;6.878;2023-04-03T07:25:48;9.23;;;2.13;;
43529;SDS011;55654;50.966;6.878;2023-04-03T07:28:14;8.23;;;3.57;;
43529;SDS011;55654;50.966;6.878;2023-04-03T07:30:44;5.23;;;1.73;;
43529;SDS011;55654;50.966;6.878;2023-04-03T07:33:11;5.13;;;1.40;;
43529;SDS011;55654;50.966;6.878;2023-04-03T07:35:39;5.17;;;1.80;;
43529;SDS011;55654;50.966;6.878;2023-04-03T07:38:05;5.83;;;1.20;;
43529;SDS011;55654;50.966;6.878;2023-04-03T07:40:31;4.37;;;1.80;;
43529;SDS011;55654;50.966;6.878;2023-04-03T07:42:57;13.60;;;6.60;;
43529;SDS011;55654;50.966;6.878;2023-04-03T07:45:23;43.50;;;20.50;;
43529;SDS011;55654;50.966;6.878;2023-04-03T07:47:50;34.13;;;15.17;;
43529;SDS011;55654;50.966;6.878;2023-04-03T07:50:16;32.13;;;15.53;;
43529;SDS011;55654;50.966;6.878;2023-04-03T07:52:42;20.47;;;8.77;;
43529;SDS011;55654;50.966;6.878;2023-04-03T07:55:11;8.30;;;3.63;;
43529;SDS011;55654;50.966;6.878;2023-04-03T07:57:37;6.07;;;2.60;;
43529;SDS011;55654;50.966;6.878;2023-04-03T08:00:06;12.17;;;3.57;;
43529;SDS011;55654;50.966;6.878;2023-04-03T08:02:32;4.37;;;1.77;;
43529;SDS011;55654;50.966;6.878;2023-04-03T08:04:58;7.90;;;1.80;;
43529;SDS011;55654;50.966;6.878;2023-04-03T08:07:24;4.43;;;2.10;;
43529;SDS011;55654;50.966;6.878;2023-04-03T08:09:51;9.83;;;1.83;;
43529;SDS011;55654;50.966;6.878;2023-04-03T08:12:17;5.00;;;1.70;;
43529;SDS011;55654;50.966;6.878;2023-04-03T08:14:43;3.83;;;1.80;;
43529;SDS011;55654;50.966;6.878;2023-04-03T08:17:09;5.03;;;2.07;;
43529;SDS011;55654;50.966;6.878;2023-04-03T08:19:39;6.10;;;1.77;;
43529;SDS011;55654;50.966;6.878;2023-04-03T08:22:05;4.13;;;1.50;;
43529;SDS011;55654;50.966;6.878;2023-04-03T08:24:33;8.37;;;2.03;;
43529;SDS011;55654;50.966;6.878;2023-04-03T08:26:59;6.40;;;1.53;;
43529;SDS011;55654;50.966;6.878;2023-04-03T08:29:26;5.00;;;1.53;;
43529;SDS011;55654;50.966;6.878;2023-04-03T08:31:52;6.00;;;1.63;;
43529;SDS011;55654;50.966;6.878;2023-04-03T08:34:18;6.27;;;1.50;;
43529;SDS011;55654;50.966;6.878;2023-04-03T08:36:44;6.23;;;1.60;;
43529;SDS011;55654;50.966;6.878;2023-04-03T08:39:10;5.20;;;1.93;;
43529;SDS011;55654;50.966;6.878;2023-04-03T08:41:39;6.67;;;1.87;;
43529;SDS011;55654;50.966;6.878;2023-04-03T08:49:45;4.97;;;1.67;;
43529;SDS011;55654;50.966;6.878;2023-04-03T08:52:17;3.70;;;1.40;;
43529;SDS011;55654;50.966;6.878;2023-04-03T08:57:16;7.90;;;1.63;;
43529;SDS011;55654;50.966;6.878;2023-04-03T08:59:45;6.50;;;1.80;;
43529;SDS011;55654;50.966;6.878;2023-04-03T09:02:25;7.07;;;1.90;;
43529;SDS011;55654;50.966;6.878;2023-04-03T09:05:01;6.73;;;1.60;;
43529;SDS011;55654;50.966;6.878;2023-04-03T09:10:19;4.10;;;1.20;;
43529;SDS011;55654;50.966;6.878;2023-04-03T09:12:57;2.83;;;1.40;;
43529;SDS011;55654;50.966;6.878;2023-04-03T09:15:30;5.07;;;1.07;;
43529;SDS011;55654;50.966;6.878;2023-04-03T09:17:58;5.30;;;1.30;;
43529;SDS011;55654;50.966;6.878;2023-04-03T09:23:14;5.53;;;1.80;;
43529;SDS011;55654;50.966;6.878;2023-04-03T09:25:44;3.70;;;1.33;;
43529;SDS011;55654;50.966;6.878;2023-04-03T09:28:10;2.83;;;0.97;;
43529;SDS011;55654;50.966;6.878;2023-04-03T09:30:37;3.57;;;1.47;;
43529;SDS011;55654;50.966;6.878;2023-04-03T09:33:03;5.73;;;1.60;;
43529;SDS011;55654;50.966;6.878;2023-04-03T09:35:33;4.80;;;1.10;;
43529;SDS011;55654;50.966;6.878;2023-04-03T09:40:42;5.43;;;1.00;;
43529;SDS011;55654;50.966;6.878;2023-04-03T09:45:53;5.03;;;1.50;;
43529;SDS011;55654;50.966;6.878;2023-04-03T09:48:21;4.17;;;1.47;;
43529;SDS011;55654;50.966;6.878;2023-04-03T09:56:02;8.70;;;1.47;;
43529;SDS011;55654;50.966;6.878;2023-04-03T09:58:31;3.43;;;1.40;;
43529;SDS011;55654;50.966;6.878;2023-04-03T10:00:58;3.47;;;1.07;;
43529;SDS011;55654;50.966;6.878;2023-04-03T10:03:35;6.17;;;1.30;;
43529;SDS011;55654;50.966;6.878;2023-04-03T10:06:02;4.10;;;1.27;;
43529;SDS011;55654;50.966;6.878;2023-04-03T10:08:30;2.47;;;0.90;;
43529;SDS011;55654;50.966;6.878;2023-04-03T10:11:06;7.03;;;0.90;;
43529;SDS011;55654;50.966;6.878;2023-04-03T10:13:35;1.97;;;0.80;;
43529;SDS011;55654;50.966;6.878;2023-04-03T10:16:03;2.47;;;0.80;;
43529;SDS011;55654;50.966;6.878;2023-04-03T10:21:15;4.13;;;0.80;;
43529;SDS011;55654;50.966;6.878;2023-04-03T10:23:49;6.87;;;1.33;;
43529;SDS011;55654;50.966;6.878;2023-04-03T10:26:21;1.60;;;0.80;;
43529;SDS011;55654;50.966;6.878;2023-04-03T10:31:58;2.87;;;0.90;;
43529;SDS011;55654;50.966;6.878;2023-04-03T10:34:35;2.87;;;1.00;;
43529;SDS011;55654;50.966;6.878;2023-04-03T10:44:50;2.63;;;1.00;;
43529;SDS011;55654;50.966;6.878;2023-04-03T10:47:20;2.40;;;0.93;;
43529;SDS011;55654;50.966;6.878;2023-04-03T10:49:58;3.70;;;0.80;;
43529;SDS011;55654;50.966;6.878;2023-04-03T10:57:26;2.70;;;1.37;;
43529;SDS011;55654;50.966;6.878;2023-04-03T10:59:55;5.70;;;0.87;;
43529;SDS011;55654;50.966;6.878;2023-04-03T11:02:24;2.50;;;1.00;;
43529;SDS011;55654;50.966;6.878;2023-04-03T11:04:52;1.43;;;0.67;;
43529;SDS011;55654;50.966;6.878;2023-04-03T11:07:20;3.23;;;1.03;;
43529;SDS011;55654;50.966;6.878;2023-04-03T11:09:52;3.73;;;0.60;;
43529;SDS011;55654;50.966;6.878;2023-04-03T11:14:51;3.92;;;1.00;;
43529;SDS011;55654;50.966;6.878;2023-04-03T11:25:06;1.67;;;0.70;;
43529;SDS011;55654;50.966;6.878;2023-04-03T11:27:43;2.70;;;1.47;;
43529;SDS011;55654;50.966;6.878;2023-04-03T11:30:16;3.13;;;1.20;;
43529;SDS011;55654;50.966;6.878;2023-04-03T11:35:29;2.80;;;1.30;;
43529;SDS011;55654;50.966;6.878;2023-04-03T11:37:56;2.93;;;0.80;;
43529;SDS011;55654;50.966;6.878;2023-04-03T11:40:30;2.67;;;0.80;;
43529;SDS011;55654;50.966;6.878;2023-04-03T11:43:21;3.93;;;0.60;;
43529;SDS011;55654;50.966;6.878;2023-04-03T11:50:53;3.53;;;1.10;;
43529;SDS011;55654;50.966;6.878;2023-04-03T12:01:01;3.03;;;0.90;;
43529;SDS011;55654;50.966;6.878;2023-04-03T12:23:56;4.27;;;0.80;;
43529;SDS011;55654;50.966;6.878;2023-04-03T12:26:24;1.90;;;0.73;;
43529;SDS011;55654;50.966;6.878;2023-04-03T12:28:51;1.97;;;0.60;;
43529;SDS011;55654;50.966;6.878;2023-04-03T12:31:18;2.67;;;0.70;;
43529;SDS011;55654;50.966;6.878;2023-04-03T12:36:42;1.63;;;0.57;;
43529;SDS011;55654;50.966;6.878;2023-04-03T12:42:01;3.70;;;0.90;;
43529;SDS011;55654;50.966;6.878;2023-04-03T12:44:35;3.13;;;0.80;;
43529;SDS011;55654;50.966;6.878;2023-04-03T12:47:10;2.40;;;1.02;;
43529;SDS011;55654;50.966;6.878;2023-04-03T12:49:41;2.33;;;0.97;;
43529;SDS011;55654;50.966;6.878;2023-04-03T12:55:03;4.63;;;0.68;;
43529;SDS011;55654;50.966;6.878;2023-04-03T12:57:35;4.00;;;0.87;;
43529;SDS011;55654;50.966;6.878;2023-04-03T13:00:27;3.67;;;1.20;;
43529;SDS011;55654;50.966;6.878;2023-04-03T13:02:49;1.83;;;0.80;;
43529;SDS011;55654;50.966;6.878;2023-04-03T13:05:17;1.13;;;0.50;;
43529;SDS011;55654;50.966;6.878;2023-04-03T13:07:44;1.93;;;0.80;;
43529;SDS011;55654;50.966;6.878;2023-04-03T13:10:15;2.17;;;0.43;;
43529;SDS011;55654;50.966;6.878;2023-04-03T13:12:45;1.93;;;0.30;;
43529;SDS011;55654;50.966;6.878;2023-04-03T13:15:16;2.63;;;0.70;;
43529;SDS011;55654;50.966;6.878;2023-04-03T13:17:43;3.30;;;0.70;;
43529;SDS011;55654;50.966;6.878;2023-04-03T13:20:13;2.80;;;0.70;;
43529;SDS011;55654;50.966;6.878;2023-04-03T13:22:43;1.57;;;0.70;;
43529;SDS011;55654;50.966;6.878;2023-04-03T13:25:13;4.00;;;0.60;;
43529;SDS011;55654;50.966;6.878;2023-04-03T13:27:40;2.50;;;0.77;;
43529;SDS011;55654;50.966;6.878;2023-04-03T13:30:17;2.77;;;0.77;;
43529;SDS011;55654;50.966;6.878;2023-04-03T13:32:45;1.23;;;0.60;;
43529;SDS011;55654;50.966;6.878;2023-04-03T13:40:52;4.00;;;1.20;;
43529;SDS011;55654;50.966;6.878;2023-04-03T13:43:20;2.33;;;0.70;;
43529;SDS011;55654;50.966;6.878;2023-04-03T13:45:57;2.55;;;0.90;;
43529;SDS011;55654;50.966;6.878;2023-04-03T13:48:24;3.33;;;1.00;;
43529;SDS011;55654;50.966;6.878;2023-04-03T13:50:54;3.67;;;2.03;;
43529;SDS011;55654;50.966;6.878;2023-04-03T13:53:22;2.47;;;0.85;;
43529;SDS011;55654;50.966;6.878;2023-04-03T13:58:31;2.00;;;0.82;;
43529;SDS011;55654;50.966;6.878;2023-04-03T14:05:54;3.15;;;1.23;;
43529;SDS011;55654;50.966;6.878;2023-04-03T14:08:20;2.70;;;0.90;;
43529;SDS011;55654;50.966;6.878;2023-04-03T14:10:47;8.67;;;1.10;;
43529;SDS011;55654;50.966;6.878;2023-04-03T14:13:14;2.67;;;0.80;;
43529;SDS011;55654;50.966;6.878;2023-04-03T14:15:41;6.43;;;1.40;;
43529;SDS011;55654;50.966;6.878;2023-04-03T14:18:15;2.20;;;0.88;;
43529;SDS011;55654;50.966;6.878;2023-04-03T14:20:44;2.53;;;1.20;;
43529;SDS011;55654;50.966;6.878;2023-04-03T14:23:10;4.38;;;1.00;;
43529;SDS011;55654;50.966;6.878;2023-04-03T14:25:36;3.28;;;0.60;;
43529;SDS011;55654;50.966;6.878;2023-04-03T14:28:15;1.27;;;0.55;;
43529;SDS011;55654;50.966;6.878;2023-04-03T14:30:45;1.45;;;0.73;;
43529;SDS011;55654;50.966;6.878;2023-04-03T14:33:16;2.20;;;0.90;;
43529;SDS011;55654;50.966;6.878;2023-04-03T14:35:43;3.17;;;0.93;;
43529;SDS011;55654;50.966;6.878;2023-04-03T14:38:28;1.58;;;0.77;;
43529;SDS011;55654;50.966;6.878;2023-04-03T14:40:55;2.00;;;1.13;;
43529;SDS011;55654;50.966;6.878;2023-04-03T14:43:21;3.75;;;1.00;;
43529;SDS011;55654;50.966;6.878;2023-04-03T14:45:47;1.75;;;0.80;;
43529;SDS011;55654;50.966;6.878;2023-04-03T14:48:20;1.73;;;0.70;;
43529;SDS011;55654;50.966;6.878;2023-04-03T14:50:47;2.55;;;0.90;;
43529;SDS011;55654;50.966;6.878;2023-04-03T14:53:14;2.10;;;0.80;;
43529;SDS011;55654;50.966;6.878;2023-04-03T14:55:46;2.50;;;0.80;;
43529;SDS011;55654;50.966;6.878;2023-04-03T14:58:13;2.85;;;1.02;;
43529;SDS011;55654;50.966;6.878;2023-04-03T15:00:39;2.63;;;1.10;;
43529;SDS011;55654;50.966;6.878;2023-04-03T15:03:15;2.97;;;1.00;;
43529;SDS011;55654;50.966;6.878;2023-04-03T15:05:41;3.05;;;0.90;;
43529;SDS011;55654;50.966;6.878;2023-04-03T15:08:11;2.60;;;0.80;;
43529;SDS011;55654;50.966;6.878;2023-04-03T15:10:42;4.00;;;1.23;;
43529;SDS011;55654;50.966;6.878;2023-04-03T15:13:08;5.70;;;1.15;;
43529;SDS011;55654;50.966;6.878;2023-04-03T15:15:34;3.30;;;1.23;;
43529;SDS011;55654;50.966;6.878;2023-04-03T15:18:01;5.63;;;1.45;;
43529;SDS011;55654;50.966;6.878;2023-04-03T15:20:28;4.93;;;0.93;;
43529;SDS011;55654;50.966;6.878;2023-04-03T15:22:55;3.85;;;1.33;;
43529;SDS011;55654;50.966;6.878;2023-04-03T15:25:21;2.85;;;1.30;;
43529;SDS011;55654;50.966;6.878;2023-04-03T15:27:48;3.38;;;1.23;;
43529;SDS011;55654;50.966;6.878;2023-04-03T15:30:15;3.57;;;1.10;;
43529;SDS011;55654;50.966;6.878;2023-04-03T15:32:41;4.90;;;1.30;;
43529;SDS011;55654;50.966;6.878;2023-04-03T15:35:07;1.85;;;0.93;;
43529;SDS011;55654;50.966;6.878;2023-04-03T15:37:35;2.45;;;0.98;;
43529;SDS011;55654;50.966;6.878;2023-04-03T15:40:06;1.70;;;0.68;;
43529;SDS011;55654;50.966;6.878;2023-04-03T15:42:33;2.33;;;0.97;;
43529;SDS011;55654;50.966;6.878;2023-04-03T15:44:59;2.85;;;1.00;;
43529;SDS011;55654;50.966;6.878;2023-04-03T15:47:25;3.72;;;1.23;;
43529;SDS011;55654;50.966;6.878;2023-04-03T15:49:52;2.22;;;0.73;;
43529;SDS011;55654;50.966;6.878;2023-04-03T15:52:19;2.47;;;1.08;;
43529;SDS011;55654;50.966;6.878;2023-04-03T15:54:45;7.35;;;1.50;;
43529;SDS011;55654;50.966;6.878;2023-04-03T15:57:11;2.90;;;1.27;;
43529;SDS011;55654;50.966;6.878;2023-04-03T15:59:37;2.30;;;1.15;;
43529;SDS011;55654;50.966;6.878;2023-04-03T16:02:03;2.75;;;0.90;;
43529;SDS011;55654;50.966;6.878;2023-04-03T16:04:30;3.40;;;1.33;;
43529;SDS011;55654;50.966;6.878;2023-04-03T16:06:56;3.15;;;1.13;;
43529;SDS011;55654;50.966;6.878;2023-04-03T16:09:22;2.80;;;1.05;;
43529;SDS011;55654;50.966;6.878;2023-04-03T16:11:48;3.55;;;0.98;;
43529;SDS011;55654;50.966;6.878;2023-04-03T16:14:16;4.47;;;1.30;;
43529;SDS011;55654;50.966;6.878;2023-04-03T16:16:42;2.87;;;1.33;;
43529;SDS011;55654;50.966;6.878;2023-04-03T16:19:11;227.83;;;18.33;;
43529;SDS011;55654;50.966;6.878;2023-04-03T16:21:38;3.43;;;1.03;;
43529;SDS011;55654;50.966;6.878;2023-04-03T16:24:05;3.27;;;1.10;;
43529;SDS011;55654;50.966;6.878;2023-04-03T16:26:31;6.10;;;0.90;;
43529;SDS011;55654;50.966;6.878;2023-04-03T16:28:57;4.40;;;1.10;;
43529;SDS011;55654;50.966;6.878;2023-04-03T16:31:23;2.67;;;1.00;;
43529;SDS011;55654;50.966;6.878;2023-04-03T16:33:50;4.87;;;1.50;;
43529;SDS011;55654;50.966;6.878;2023-04-03T16:36:17;2.17;;;0.70;;
43529;SDS011;55654;50.966;6.878;2023-04-03T16:38:45;9.03;;;1.77;;
43529;SDS011;55654;50.966;6.878;2023-04-03T16:41:11;3.73;;;1.47;;
43529;SDS011;55654;50.966;6.878;2023-04-03T16:43:37;5.70;;;1.23;;
43529;SDS011;55654;50.966;6.878;2023-04-03T16:46:03;2.17;;;1.03;;